Ludington, MI

2:31 AM EDT on July 14, 2014 (GMT -0400)
Manistee County-Blacker (KMBL) Elev 620 ft | 44.27 °N, 86.25 °W | Change Station

Current weather conditions updated 16 minutes ago

Partly Cloudy
Partly Cloudy
54 °F
Feels Like 54 °F
N
4
Wind Variable Wind from East
Gusts 8 mph

Today is forecast to be Cooler than yesterday. Showers possible tonight.

Today
High -- | Low -- °F
--% Chance of Precip.
Yesterday
High -- | Low -- °F
Precip. -- in
6:16 AM 9:26 PM
Waning Gibbous, 95% visible
Pressure 29.88 in
Visibility 0.8 miles
Clouds
Dew Point 52 °F
Humidity 94%
Rainfall 0.00 in
Snow Depth Not available.
UV Not available.
Pollen 2.60 out of 12
Ozone Good
PM2.5 Good
Flu Activity Sporadic
METAR KMBL 140615Z AUTO 09003KT 3/4SM VV005 12/11 A2988 RMK AO1

More Conditions Fewer Conditions

Pressure 29.88 in
Visibility 0.8 miles
Clouds
Dew Point 52 °F
Humidity 94%
Rainfall 0.00 in
Snow Depth Not available.
UV Not available.
Pollen 2.60 out of 12
Ozone Good
PM2.5 Good
Flu Activity Sporadic
METAR KMBL 140615Z AUTO 09003KT 3/4SM VV005 12/11 A2988 RMK AO1

More Conditions Fewer Conditions

10-Day Weather Forecast

Almanac

Astronomy

Jul. 14, 2014 Rise Set
Actual Time 6:16 AM EDT 9:26 PM EDT
Civil Twilight 5:41 AM EDT 10:01 PM EDT
Nautical Twilight 4:55 AM EDT 10:46 PM EDT
Astronomical Twilight 4:00 AM EDT 11:41 PM EDT
Moon 10:47 PM EDT 9:05 AM EDT
Length of Visible Light 16h 20m
Length of Day
15h 10m
Tomorrow will be 1m 33s shorter.
Waning Gibbous, 95% of the Moon is Illuminated
Today
Waning Gibbous
Jul 18
Last Quarter
Jul 26
New
Aug 3
First Quarter
Aug 10
Full

Today's Extremes

State Highs State Lows

Community

WunderPhotos

Upload Photos

1,733,565 photos uploaded!

Nearby

Air Quality

  Air Quality AQ Index Pollutant
Yesterday Good
PM2.5
Yesterday Good
OZONE
Current Good
PM2.5
Current Good
OZONE
Monday Good
OZONE
Monday Good
PM2.5
Tuesday Good
OZONE
Tuesday Good
PM2.5
Wednesday Good
OZONE
Wednesday Good
PM2.5

Snow Depth

Station Depth Elevation
No new snow has been reported.

Earthquake Activity

City Distance Mag. Time & Date
No recent earthquake activity has been reported nearby.
Minimum magnitude displayed is 2.5.

Coastal Water Temperatures

Place Temperature
No Stations Reporting

Nearby Weather Stations

Station Location Temp. Dew Point Humidity Wind Precip. Elev Updated Type
Forest Hills, Ludington, MI 57.4 °F 57 °F 99% North  at  0.0 mph 0.00 in / hr 636 ft 2:31 AM EDT Rapid Fire
Hamlin Township, Ludington, MI 53.6 °F 52 °F 96% North  at  0.0 mph 0.00 in / hr 665 ft 2:31 AM EDT Rapid Fire
MesoWest Ludington , Ludington, MI 59 °F 58 °F 97% WSW  at  1 mph 0.00 in / hr 654 ft 1:00 AM EDT MADIS
Bass Lake, Pentwater, MI 59.4 °F 58 °F 97% SE  at  0.0 mph 0.00 in / hr 584 ft 2:31 AM EDT Normal
Pentwater Fire Department, Pentwater, MI 56.4 °F 56 °F 100% WSW  at  0.0 mph 0.00 in / hr 609 ft 2:27 AM EDT Normal
MesoWest Hart , Hart, MI 58 °F 56 °F 94% North  at  0 mph 0.00 in / hr 766 ft 1:00 AM EDT MADIS

Show More Stations Show Fewer Stations